createdAt,value
2022-11-22T00:00:29.434Z,2.50
2022-11-22T00:01:29.430Z,2.53
2022-11-22T00:02:29.474Z,2.56
2022-11-22T00:03:29.443Z,2.53
2022-11-22T00:04:29.411Z,2.60
2022-11-22T00:05:29.402Z,2.53
2022-11-22T00:06:29.393Z,2.56
2022-11-22T00:07:29.429Z,2.54
2022-11-22T00:08:29.396Z,2.65
2022-11-22T00:09:29.671Z,2.62
2022-11-22T00:10:29.357Z,2.61
2022-11-22T00:11:29.347Z,2.62
2022-11-22T00:12:29.335Z,2.57
2022-11-22T00:13:29.365Z,2.67
2022-11-22T00:14:29.322Z,2.65
2022-11-22T00:15:29.320Z,2.62
2022-11-22T00:16:29.308Z,2.51
2022-11-22T00:17:29.300Z,2.51
2022-11-22T00:18:29.315Z,2.54
2022-11-22T00:19:29.479Z,2.61
2022-11-22T00:20:29.284Z,2.60
2022-11-22T00:21:29.259Z,2.65
2022-11-22T00:22:29.259Z,2.56
2022-11-22T00:23:29.279Z,2.56
2022-11-22T00:24:29.237Z,2.61
2022-11-22T00:25:29.234Z,2.65
2022-11-22T00:26:29.223Z,2.64
2022-11-22T00:27:29.221Z,2.64
2022-11-22T00:28:29.234Z,2.64
2022-11-22T00:29:29.528Z,2.62
2022-11-22T00:30:29.197Z,2.64
2022-11-22T00:31:29.186Z,2.60
2022-11-22T00:32:29.177Z,2.74
2022-11-22T00:33:29.202Z,2.61
2022-11-22T00:34:29.164Z,2.74
2022-11-22T00:35:29.155Z,2.64
2022-11-22T00:36:29.148Z,2.80
2022-11-22T00:37:29.135Z,2.71
2022-11-22T00:38:29.134Z,2.69
2022-11-22T00:39:29.563Z,2.79
2022-11-22T00:40:29.121Z,2.72
2022-11-22T00:41:29.111Z,2.80
2022-11-22T00:42:29.113Z,2.77
2022-11-22T00:43:30.092Z,2.80
2022-11-22T00:44:29.114Z,2.83
2022-11-22T00:45:29.082Z,2.77
2022-11-22T00:46:29.071Z,2.79
2022-11-22T00:47:29.065Z,2.83
2022-11-22T00:48:29.053Z,2.75
2022-11-22T00:49:29.576Z,2.86
2022-11-22T00:50:29.038Z,2.82
2022-11-22T00:51:29.036Z,2.86
2022-11-22T00:52:29.033Z,2.87
2022-11-22T00:53:29.019Z,2.85
2022-11-22T00:54:29.037Z,2.83
2022-11-22T00:55:29.007Z,2.87
2022-11-22T00:56:28.993Z,2.79
2022-11-22T00:57:28.983Z,2.86
2022-11-22T00:58:28.979Z,2.92
2022-11-22T00:59:29.218Z,2.86
2022-11-22T01:00:28.960Z,2.86
2022-11-22T01:01:29.087Z,2.80
2022-11-22T01:02:28.943Z,2.83
2022-11-22T01:03:28.937Z,2.89
2022-11-22T01:04:28.968Z,2.92
2022-11-22T01:05:28.922Z,2.89
2022-11-22T01:06:28.916Z,2.92
2022-11-22T01:07:28.946Z,2.83
2022-11-22T01:08:28.896Z,2.93
2022-11-22T01:09:29.078Z,2.89
2022-11-22T01:10:28.886Z,2.87
2022-11-22T01:11:28.874Z,2.89
2022-11-22T01:12:28.866Z,2.98
2022-11-22T01:13:28.860Z,2.98
2022-11-22T01:14:28.877Z,3.08
2022-11-22T01:15:28.840Z,2.98
2022-11-22T01:16:28.828Z,2.97
2022-11-22T01:17:28.824Z,2.92
2022-11-22T01:18:28.814Z,2.95
2022-11-22T01:19:29.135Z,2.93
2022-11-22T01:20:28.801Z,2.95
2022-11-22T01:21:28.795Z,2.90
2022-11-22T01:22:28.786Z,2.85
2022-11-22T01:23:28.777Z,2.87
2022-11-22T01:24:28.804Z,2.90
2022-11-22T01:25:28.763Z,2.87
2022-11-22T01:26:28.755Z,2.98
2022-11-22T01:27:28.750Z,2.95
2022-11-22T01:28:28.740Z,3.01
2022-11-22T01:29:29.033Z,3.00
2022-11-22T01:30:28.719Z,3.01
2022-11-22T01:31:28.729Z,2.97
2022-11-22T01:32:28.705Z,3.07
2022-11-22T01:33:28.699Z,3.01
2022-11-22T01:34:28.691Z,3.07
2022-11-22T01:35:28.709Z,3.08
2022-11-22T01:36:28.674Z,2.95
2022-11-22T01:37:28.669Z,3.08
2022-11-22T01:38:28.659Z,2.97
2022-11-22T01:39:28.950Z,3.01
2022-11-22T01:40:28.664Z,3.05
2022-11-22T01:41:28.633Z,3.10
2022-11-22T01:42:28.623Z,3.08
2022-11-22T01:43:28.619Z,3.04
2022-11-22T01:44:28.607Z,3.07
2022-11-22T01:45:28.626Z,3.04
2022-11-22T01:46:28.595Z,3.07
2022-11-22T01:47:28.586Z,3.04
2022-11-22T01:48:28.580Z,3.16
2022-11-22T01:49:28.919Z,3.22
2022-11-22T01:50:28.588Z,3.19
2022-11-22T01:51:28.558Z,3.19
2022-11-22T01:52:28.545Z,3.26
2022-11-22T01:53:28.542Z,3.22
2022-11-22T01:54:28.531Z,3.18
2022-11-22T01:55:28.550Z,3.21
2022-11-22T01:56:28.519Z,3.28
2022-11-22T01:57:28.506Z,3.32
2022-11-22T01:58:28.498Z,3.25
2022-11-22T01:59:28.787Z,3.25
2022-11-22T02:00:28.512Z,3.28
2022-11-22T02:01:28.607Z,3.34
2022-11-22T02:02:28.468Z,3.22
2022-11-22T02:03:28.460Z,3.31
2022-11-22T02:04:28.455Z,3.25
2022-11-22T02:05:28.472Z,3.29
2022-11-22T02:06:28.436Z,3.26
2022-11-22T02:07:28.472Z,3.25
2022-11-22T02:08:28.424Z,3.26
2022-11-22T02:09:28.591Z,3.32
2022-11-22T02:10:28.434Z,3.26
2022-11-22T02:11:32.639Z,3.31
2022-11-22T02:12:30.391Z,3.23
2022-11-22T02:13:28.378Z,3.29
2022-11-22T02:14:28.371Z,3.32
2022-11-22T02:15:28.396Z,3.37
2022-11-22T02:16:28.359Z,3.32
2022-11-22T02:17:28.350Z,3.23
2022-11-22T02:18:28.339Z,3.26
2022-11-22T02:19:28.568Z,3.28
2022-11-22T02:20:28.349Z,3.25
2022-11-22T02:21:28.315Z,3.25
2022-11-22T02:22:28.313Z,3.31
2022-11-22T02:23:28.297Z,3.36
2022-11-22T02:24:28.287Z,3.32
2022-11-22T02:25:28.299Z,3.28
2022-11-22T02:26:28.273Z,3.29
2022-11-22T02:27:28.262Z,3.40
2022-11-22T02:28:28.260Z,3.28
2022-11-22T02:29:28.581Z,3.37
2022-11-22T02:30:28.269Z,3.42
2022-11-22T02:31:28.236Z,3.47
2022-11-22T02:32:28.222Z,3.48
2022-11-22T02:33:28.215Z,3.58
2022-11-22T02:34:28.203Z,3.56
2022-11-22T02:35:28.225Z,3.50
2022-11-22T02:36:28.191Z,3.55
2022-11-22T02:37:28.183Z,3.51
2022-11-22T02:38:28.174Z,3.58
2022-11-22T02:39:28.469Z,3.53
2022-11-22T02:40:28.192Z,3.50
2022-11-22T02:41:28.147Z,3.53
2022-11-22T02:42:28.145Z,3.51
2022-11-22T02:43:28.138Z,3.50
2022-11-22T02:44:28.132Z,3.51
2022-11-22T02:45:28.145Z,3.65
2022-11-22T02:46:28.112Z,3.60
2022-11-22T02:47:28.107Z,3.62
2022-11-22T02:48:28.097Z,3.56
2022-11-22T02:49:28.659Z,3.55
2022-11-22T02:50:28.110Z,3.58
2022-11-22T02:51:28.073Z,3.53
2022-11-22T02:52:28.068Z,3.73
2022-11-22T02:53:28.058Z,3.65
2022-11-22T02:54:28.052Z,3.62
2022-11-22T02:55:28.075Z,3.73
2022-11-22T02:56:28.040Z,3.74
2022-11-22T02:57:28.027Z,3.69
2022-11-22T02:58:28.022Z,3.76
2022-11-22T02:59:28.373Z,3.80
2022-11-22T03:00:28.032Z,3.81
2022-11-22T03:01:28.033Z,3.68
2022-11-22T03:02:27.999Z,3.80
2022-11-22T03:03:27.980Z,3.74
2022-11-22T03:04:27.963Z,3.80
2022-11-22T03:05:28.991Z,3.83
2022-11-22T03:06:27.953Z,3.78
2022-11-22T03:07:27.989Z,3.78
2022-11-22T03:08:27.940Z,3.76
2022-11-22T03:09:28.216Z,3.76
2022-11-22T03:10:27.925Z,3.78
2022-11-22T03:11:27.937Z,3.80
2022-11-22T03:12:27.927Z,3.91
2022-11-22T03:13:27.902Z,3.84
2022-11-22T03:14:27.889Z,3.80
2022-11-22T03:15:27.882Z,3.86
2022-11-22T03:16:27.898Z,3.87
2022-11-22T03:17:27.867Z,3.73
2022-11-22T03:18:27.854Z,3.87
2022-11-22T03:19:28.038Z,3.77
2022-11-22T03:20:27.842Z,3.91
2022-11-22T03:21:27.863Z,3.92
2022-11-22T03:22:27.827Z,3.91
2022-11-22T03:23:27.817Z,3.88
2022-11-22T03:24:27.807Z,3.96
2022-11-22T03:25:27.801Z,3.86
2022-11-22T03:26:27.817Z,3.92
2022-11-22T03:27:27.785Z,3.99
2022-11-22T03:28:27.783Z,3.96
2022-11-22T03:29:28.007Z,3.99
2022-11-22T03:30:27.768Z,3.96
2022-11-22T03:31:27.781Z,3.96
2022-11-22T03:32:27.746Z,4.04
2022-11-22T03:33:27.741Z,4.06
2022-11-22T03:34:27.732Z,4.12
2022-11-22T03:35:27.721Z,4.14
2022-11-22T03:36:27.740Z,4.10
2022-11-22T03:37:27.708Z,4.04
2022-11-22T03:38:27.702Z,4.05
2022-11-22T03:39:28.011Z,4.04
2022-11-22T03:40:27.679Z,4.08
2022-11-22T03:41:27.701Z,4.06
2022-11-22T03:42:27.664Z,4.22
2022-11-22T03:43:27.659Z,4.14
2022-11-22T03:44:27.649Z,4.08
2022-11-22T03:45:27.636Z,4.02
2022-11-22T03:46:27.654Z,4.04
2022-11-22T03:47:27.625Z,4.10
2022-11-22T03:48:27.615Z,4.02
2022-11-22T03:49:27.697Z,4.05
2022-11-22T03:50:27.600Z,4.08
2022-11-22T03:51:27.622Z,3.99
2022-11-22T03:52:27.585Z,4.05
2022-11-22T03:53:27.579Z,4.04
2022-11-22T03:54:27.573Z,4.01
2022-11-22T03:55:27.565Z,3.99
2022-11-22T03:56:27.574Z,3.99
2022-11-22T03:57:27.544Z,4.02
2022-11-22T03:58:27.535Z,4.08
2022-11-22T03:59:27.720Z,3.99
2022-11-22T04:00:27.528Z,3.99
2022-11-22T04:01:27.602Z,3.98
2022-11-22T04:02:27.511Z,4.10
2022-11-22T04:03:27.503Z,4.16
2022-11-22T04:04:27.496Z,4.16
2022-11-22T04:05:27.489Z,4.16
2022-11-22T04:06:27.504Z,4.22
2022-11-22T04:07:27.522Z,4.17
2022-11-22T04:08:27.468Z,4.20
2022-11-22T04:09:27.794Z,4.19
2022-11-22T04:10:27.450Z,4.14
2022-11-22T04:11:27.469Z,4.20
2022-11-22T04:12:27.428Z,4.23
2022-11-22T04:13:27.427Z,4.19
2022-11-22T04:14:27.414Z,4.17
2022-11-22T04:15:27.406Z,4.19
2022-11-22T04:16:27.425Z,4.19
2022-11-22T04:17:27.392Z,4.19
2022-11-22T04:18:27.384Z,4.13
2022-11-22T04:19:27.503Z,4.17
2022-11-22T04:20:27.372Z,4.08
2022-11-22T04:21:27.392Z,4.22
2022-11-22T04:22:27.356Z,4.19
2022-11-22T04:23:33.578Z,4.16
2022-11-22T04:24:29.333Z,4.19
2022-11-22T04:25:27.329Z,4.17
2022-11-22T04:26:27.361Z,4.20
2022-11-22T04:27:27.317Z,4.16
2022-11-22T04:29:29.610Z,4.13
2022-11-22T04:30:27.289Z,4.19
2022-11-22T04:31:27.284Z,4.26
2022-11-22T04:32:27.306Z,4.22
2022-11-22T04:33:27.269Z,4.22
2022-11-22T04:34:27.262Z,4.22
2022-11-22T04:35:27.253Z,4.20
2022-11-22T04:36:28.276Z,4.23
2022-11-22T04:37:27.235Z,4.24
2022-11-22T04:38:27.219Z,4.22
2022-11-22T04:39:27.456Z,4.32
2022-11-22T04:40:27.212Z,4.32
2022-11-22T04:41:27.197Z,4.20
2022-11-22T04:42:27.214Z,4.34
2022-11-22T04:43:27.188Z,4.31
2022-11-22T04:44:27.172Z,4.37
2022-11-22T04:45:27.163Z,4.40
2022-11-22T04:46:27.198Z,4.41
2022-11-22T04:47:27.174Z,4.34
2022-11-22T04:48:27.142Z,4.38
2022-11-22T04:49:27.495Z,4.34
2022-11-22T04:50:27.132Z,4.35
2022-11-22T04:51:27.116Z,4.40
2022-11-22T04:52:27.131Z,4.35
2022-11-22T04:53:27.101Z,4.32
2022-11-22T04:54:27.092Z,4.41
2022-11-22T04:55:27.096Z,4.40
2022-11-22T04:56:27.079Z,4.44
2022-11-22T04:57:27.092Z,4.32
2022-11-22T04:58:27.061Z,4.31
2022-11-22T04:59:27.194Z,4.31
2022-11-22T05:00:27.044Z,4.23
2022-11-22T05:01:27.072Z,4.37
2022-11-22T05:02:27.056Z,4.31
2022-11-22T05:03:27.021Z,4.41
2022-11-22T05:04:27.015Z,4.42
2022-11-22T05:05:27.008Z,4.45
2022-11-22T05:06:26.994Z,4.42
2022-11-22T05:07:27.056Z,4.41
2022-11-22T05:08:26.983Z,4.44
2022-11-22T05:09:27.201Z,4.42
2022-11-22T05:10:27.415Z,4.45
2022-11-22T05:11:26.962Z,4.48
2022-11-22T05:12:26.985Z,4.38
2022-11-22T05:13:26.943Z,4.41
2022-11-22T05:14:26.937Z,4.49
2022-11-22T05:15:26.933Z,4.48
2022-11-22T05:16:26.923Z,4.45
2022-11-22T05:17:26.945Z,4.49
2022-11-22T05:18:26.907Z,4.38
2022-11-22T05:19:27.066Z,4.34
2022-11-22T05:20:26.889Z,4.42
2022-11-22T05:21:26.883Z,4.55
2022-11-22T05:22:26.905Z,4.52
2022-11-22T05:23:26.868Z,4.48
2022-11-22T05:24:26.858Z,4.52
2022-11-22T05:25:26.854Z,4.52
2022-11-22T05:26:26.852Z,4.42
2022-11-22T05:27:26.839Z,4.52
2022-11-22T05:28:26.854Z,4.44
2022-11-22T05:29:27.031Z,4.42
2022-11-22T05:30:26.816Z,4.44
2022-11-22T05:31:26.809Z,4.52
2022-11-22T05:32:26.794Z,4.49
2022-11-22T05:33:26.815Z,4.49
2022-11-22T05:34:26.781Z,4.60
2022-11-22T05:35:26.790Z,4.52
2022-11-22T05:36:26.769Z,4.50
2022-11-22T05:37:26.758Z,4.60
2022-11-22T05:38:26.778Z,4.49
2022-11-22T05:39:26.810Z,4.56
2022-11-22T05:40:26.741Z,4.60
2022-11-22T05:41:26.726Z,4.63
2022-11-22T05:42:26.717Z,4.63
2022-11-22T05:43:26.735Z,4.63
2022-11-22T05:44:26.706Z,4.71
2022-11-22T05:45:26.703Z,4.74
2022-11-22T05:46:26.689Z,4.63
2022-11-22T05:47:26.682Z,4.74
2022-11-22T05:48:26.717Z,4.70
2022-11-22T05:49:26.666Z,4.68
2022-11-22T05:50:26.667Z,4.75
2022-11-22T05:51:32.193Z,4.75
2022-11-22T05:52:28.639Z,4.80
2022-11-22T05:53:26.657Z,4.74
2022-11-22T05:54:26.626Z,4.73
2022-11-22T05:55:26.611Z,4.75
2022-11-22T05:56:26.608Z,4.80
2022-11-22T05:57:26.605Z,4.86
2022-11-22T05:58:26.617Z,4.82
2022-11-22T05:59:26.586Z,4.73
2022-11-22T06:00:26.582Z,4.74
2022-11-22T06:01:26.568Z,4.75
2022-11-22T06:02:26.645Z,4.78
2022-11-22T06:03:26.580Z,4.77
2022-11-22T06:04:26.546Z,4.78
2022-11-22T06:05:26.542Z,4.77
2022-11-22T06:06:26.528Z,4.71
2022-11-22T06:07:26.606Z,4.75
2022-11-22T06:08:26.513Z,4.71
2022-11-22T06:09:26.566Z,4.71
2022-11-22T06:10:26.494Z,4.77
2022-11-22T06:11:26.489Z,4.66
2022-11-22T06:12:26.483Z,4.68
2022-11-22T06:13:26.478Z,4.71
2022-11-22T06:14:26.496Z,4.80
2022-11-22T06:15:26.461Z,4.77
2022-11-22T06:16:26.450Z,4.75
2022-11-22T06:17:26.443Z,4.62
2022-11-22T06:18:26.436Z,4.80
2022-11-22T06:19:26.453Z,4.67
2022-11-22T06:20:26.418Z,4.70
2022-11-22T06:21:26.410Z,4.74
2022-11-22T06:22:26.403Z,4.70
2022-11-22T06:23:26.396Z,4.75
2022-11-22T06:24:26.409Z,4.75
2022-11-22T06:25:26.382Z,4.71
2022-11-22T06:26:26.371Z,4.74
2022-11-22T06:27:26.361Z,4.78
2022-11-22T06:28:26.353Z,4.78
2022-11-22T06:29:26.371Z,4.75
2022-11-22T06:30:26.335Z,4.71
2022-11-22T06:31:26.331Z,4.73
2022-11-22T06:32:26.321Z,4.73
2022-11-22T06:33:26.315Z,4.73
2022-11-22T06:34:26.333Z,4.73
2022-11-22T06:35:26.298Z,4.80
2022-11-22T06:36:26.289Z,4.75
2022-11-22T06:37:26.283Z,4.74
2022-11-22T06:38:26.272Z,4.71
2022-11-22T06:39:26.288Z,4.82
2022-11-22T06:40:26.260Z,4.80
2022-11-22T06:41:26.255Z,4.86
2022-11-22T06:42:26.241Z,4.80
2022-11-22T06:43:26.241Z,4.82
2022-11-22T06:44:26.252Z,4.78
2022-11-22T06:45:26.225Z,4.82
2022-11-22T06:46:26.213Z,4.86
2022-11-22T06:47:26.203Z,4.89
2022-11-22T06:48:26.193Z,4.92
2022-11-22T06:49:26.226Z,4.90
2022-11-22T06:50:26.182Z,4.92
2022-11-22T06:51:26.176Z,4.82
2022-11-22T06:52:26.162Z,4.80
2022-11-22T06:53:45.693Z,4.73
2022-11-22T06:54:28.170Z,4.77
2022-11-22T06:55:49.598Z,4.75
2022-11-22T06:56:28.126Z,4.94
2022-11-22T06:57:26.116Z,4.82
2022-11-22T06:58:26.112Z,4.94
2022-11-22T06:59:26.156Z,4.84
2022-11-22T07:00:26.094Z,4.93
2022-11-22T07:01:26.132Z,4.93
2022-11-22T07:02:26.077Z,4.97
2022-11-22T07:03:26.072Z,4.99
2022-11-22T07:04:26.087Z,5.02
2022-11-22T07:05:26.509Z,5.02
2022-11-22T07:06:26.046Z,5.02
2022-11-22T07:07:26.070Z,5.08
2022-11-22T07:08:26.027Z,5.12
2022-11-22T07:09:26.076Z,5.04
2022-11-22T07:10:26.014Z,5.08
2022-11-22T07:11:26.017Z,5.15
2022-11-22T07:12:25.999Z,5.12
2022-11-22T07:13:25.993Z,5.18
2022-11-22T07:14:26.016Z,5.17
2022-11-22T07:15:25.976Z,5.20
2022-11-22T07:16:25.962Z,5.15
2022-11-22T07:17:25.958Z,5.10
2022-11-22T07:18:25.949Z,5.20
2022-11-22T07:19:25.969Z,5.20
2022-11-22T07:20:25.936Z,5.18
2022-11-22T07:21:25.927Z,5.20
2022-11-22T07:22:25.922Z,5.28
2022-11-22T07:23:25.912Z,5.12
2022-11-22T07:24:25.929Z,5.21
2022-11-22T07:25:25.896Z,5.12
2022-11-22T07:26:25.888Z,5.26
2022-11-22T07:27:25.879Z,5.26
2022-11-22T07:28:25.869Z,5.23
2022-11-22T07:29:25.881Z,5.26
2022-11-22T07:30:26.856Z,5.21
2022-11-22T07:31:25.844Z,5.26
2022-11-22T07:32:25.838Z,5.30
2022-11-22T07:33:25.835Z,5.28
2022-11-22T07:34:25.849Z,5.35
2022-11-22T07:35:25.828Z,5.39
2022-11-22T07:36:25.808Z,5.33
2022-11-22T07:37:25.803Z,5.29
2022-11-22T07:38:25.793Z,5.32
2022-11-22T07:39:25.812Z,5.41
2022-11-22T07:40:25.780Z,5.47
2022-11-22T07:41:25.765Z,5.39
2022-11-22T07:42:26.492Z,5.44
2022-11-22T07:43:26.756Z,5.46
2022-11-22T07:44:25.771Z,5.47
2022-11-22T07:45:25.734Z,5.47
2022-11-22T07:46:25.729Z,5.47
2022-11-22T07:47:25.725Z,5.50
2022-11-22T07:48:25.716Z,5.59
2022-11-22T07:49:25.744Z,5.59
2022-11-22T07:50:25.696Z,5.56
2022-11-22T07:51:25.691Z,5.57
2022-11-22T07:52:25.678Z,5.57
2022-11-22T07:53:26.142Z,5.50
2022-11-22T07:54:25.660Z,5.64
2022-11-22T07:55:25.680Z,5.53
2022-11-22T07:56:25.655Z,5.59
2022-11-22T07:57:25.641Z,5.48
2022-11-22T07:58:25.639Z,5.73
2022-11-22T07:59:25.627Z,5.69
2022-11-22T08:00:25.679Z,5.69
2022-11-22T08:01:25.654Z,5.72
2022-11-22T08:02:25.601Z,5.75
2022-11-22T08:03:29.227Z,5.84
2022-11-22T08:04:26.594Z,5.89
2022-11-22T08:05:25.599Z,5.84
2022-11-22T08:06:25.643Z,5.97
2022-11-22T08:07:25.611Z,5.89
2022-11-22T08:08:25.563Z,5.97
2022-11-22T08:09:25.546Z,5.97
2022-11-22T08:10:25.617Z,5.98
2022-11-22T08:11:25.529Z,6.04
2022-11-22T08:12:25.525Z,5.97
2022-11-22T08:13:25.527Z,5.99
2022-11-22T08:14:25.519Z,6.11
2022-11-22T08:15:25.528Z,6.09
2022-11-22T08:16:25.495Z,6.24
2022-11-22T08:17:25.495Z,6.35
2022-11-22T08:18:25.482Z,6.30
2022-11-22T08:19:25.472Z,6.38
2022-11-22T08:20:25.527Z,6.46
2022-11-22T08:21:25.454Z,6.45
2022-11-22T08:22:25.523Z,6.45
2022-11-22T08:23:25.448Z,6.51
2022-11-22T08:24:25.434Z,6.54
2022-11-22T08:25:25.449Z,6.70
2022-11-22T08:26:25.419Z,6.52
2022-11-22T08:27:25.438Z,6.81
2022-11-22T08:28:25.406Z,6.96
2022-11-22T08:29:25.400Z,7.06
2022-11-22T08:30:25.478Z,7.43
2022-11-22T08:31:25.377Z,7.87
2022-11-22T08:32:25.392Z,8.15
2022-11-22T08:33:25.359Z,8.45
2022-11-22T08:34:25.354Z,8.61
2022-11-22T08:35:25.344Z,8.64
2022-11-22T08:36:25.338Z,8.73
2022-11-22T08:37:25.353Z,8.85
2022-11-22T08:38:25.404Z,9.11
2022-11-22T08:39:25.312Z,9.36
2022-11-22T08:40:25.368Z,9.64
2022-11-22T08:41:25.294Z,9.97
2022-11-22T08:42:25.311Z,10.05
2022-11-22T08:43:25.296Z,10.16
2022-11-22T08:44:25.271Z,10.28
2022-11-22T08:45:25.263Z,10.40
2022-11-22T08:46:25.258Z,10.34
2022-11-22T08:47:25.277Z,10.22
2022-11-22T08:48:25.267Z,10.12
2022-11-22T08:49:25.233Z,9.84
2022-11-22T08:50:25.222Z,9.80
2022-11-22T08:51:25.215Z,9.54
2022-11-22T08:52:25.232Z,9.44
2022-11-22T08:53:25.200Z,9.29
2022-11-22T08:54:25.272Z,9.29
2022-11-22T08:55:25.182Z,9.02
2022-11-22T08:56:25.175Z,8.95
2022-11-22T08:57:25.190Z,8.79
2022-11-22T08:58:25.153Z,8.81
2022-11-22T08:59:25.212Z,8.69
2022-11-22T09:00:28.630Z,8.71
2022-11-22T09:01:27.196Z,8.69
2022-11-22T09:02:25.156Z,8.58
2022-11-22T09:03:25.124Z,8.58
2022-11-22T09:04:25.108Z,8.60
2022-11-22T09:05:25.230Z,8.38
2022-11-22T09:08:28.897Z,8.34
2022-11-22T09:09:40.490Z,8.33
2022-11-22T09:10:27.131Z,8.27
2022-11-22T09:11:26.057Z,8.18
2022-11-22T09:12:25.049Z,8.18
2022-11-22T09:13:25.063Z,8.12
2022-11-22T09:14:25.037Z,8.13
2022-11-22T09:15:25.021Z,8.05
2022-11-22T09:16:25.015Z,8.10
2022-11-22T09:17:25.019Z,8.06
2022-11-22T09:18:25.024Z,8.10
2022-11-22T09:19:24.998Z,8.01
2022-11-22T09:20:24.984Z,7.98
2022-11-22T09:21:24.975Z,8.06
2022-11-22T09:22:28.397Z,8.08
2022-11-22T09:23:25.983Z,8.08
2022-11-22T09:24:24.950Z,8.24
2022-11-22T09:25:24.944Z,8.19
2022-11-22T09:26:25.021Z,8.15
2022-11-22T09:27:24.929Z,8.18
2022-11-22T09:28:24.950Z,8.20
2022-11-22T09:29:24.924Z,8.26
2022-11-22T09:30:24.909Z,8.26
2022-11-22T09:31:24.907Z,8.26
2022-11-22T09:32:28.132Z,8.37
2022-11-22T09:33:25.940Z,8.49
2022-11-22T09:34:24.878Z,8.49
2022-11-22T09:35:24.868Z,8.49
2022-11-22T09:36:24.867Z,8.60
2022-11-22T09:37:24.849Z,8.64
2022-11-22T09:38:24.870Z,8.69
2022-11-22T09:39:24.820Z,8.67
2022-11-22T09:40:25.830Z,8.76
2022-11-22T09:41:24.823Z,8.67
2022-11-22T09:42:24.887Z,8.76
2022-11-22T09:43:24.830Z,8.81
2022-11-22T09:44:24.794Z,8.84
2022-11-22T09:45:24.785Z,8.82
2022-11-22T09:46:24.780Z,8.78
2022-11-22T09:47:24.772Z,8.79
2022-11-22T09:48:24.787Z,8.82
2022-11-22T09:49:24.758Z,8.84
2022-11-22T09:50:24.743Z,8.84
2022-11-22T09:51:24.740Z,8.73
2022-11-22T09:52:24.731Z,8.79
2022-11-22T09:53:24.751Z,8.82
2022-11-22T09:54:24.709Z,8.79
2022-11-22T09:55:24.709Z,8.76
2022-11-22T09:56:24.697Z,8.82
2022-11-22T09:57:24.688Z,8.87
2022-11-22T09:58:24.753Z,8.85
2022-11-22T09:59:24.700Z,8.91
2022-11-22T10:00:24.665Z,8.95
2022-11-22T10:01:24.702Z,8.92
2022-11-22T10:02:24.649Z,8.88
2022-11-22T10:03:24.647Z,8.95
2022-11-22T10:04:24.663Z,9.00
2022-11-22T10:05:24.632Z,8.91
2022-11-22T10:06:24.623Z,8.99
2022-11-22T10:07:24.764Z,8.97
2022-11-22T10:08:24.604Z,8.92
2022-11-22T10:09:24.634Z,8.89
2022-11-22T10:10:24.599Z,9.11
2022-11-22T10:11:24.581Z,9.23
2022-11-22T10:12:24.574Z,9.29
2022-11-22T10:13:24.556Z,9.36
2022-11-22T10:14:25.678Z,9.44
2022-11-22T10:15:24.549Z,9.44
2022-11-22T10:16:24.540Z,9.39
2022-11-22T10:17:24.543Z,9.41
2022-11-22T10:18:24.534Z,9.36
2022-11-22T10:19:24.548Z,9.21
2022-11-22T10:20:24.514Z,9.11
2022-11-22T10:21:24.506Z,9.11
2022-11-22T10:22:24.495Z,9.10
2022-11-22T10:23:24.489Z,9.19
2022-11-22T10:24:24.507Z,9.28
2022-11-22T10:25:24.468Z,9.32
2022-11-22T10:26:24.459Z,9.32
2022-11-22T10:27:24.458Z,9.43
2022-11-22T10:28:24.450Z,9.31
2022-11-22T10:29:24.463Z,9.41
2022-11-22T10:30:24.509Z,9.41
2022-11-22T10:31:24.427Z,9.39
2022-11-22T10:32:24.416Z,9.41
2022-11-22T10:33:24.405Z,9.39
2022-11-22T10:34:24.428Z,9.43
2022-11-22T10:35:24.394Z,9.47
2022-11-22T10:36:24.384Z,9.46
2022-11-22T10:37:24.382Z,9.40
2022-11-22T10:38:24.374Z,9.44
2022-11-22T10:39:24.395Z,9.44
2022-11-22T10:40:24.361Z,9.26
2022-11-22T10:41:24.352Z,9.21
2022-11-22T10:42:24.343Z,9.23
2022-11-22T10:43:24.335Z,9.22
2022-11-22T10:44:24.352Z,9.18
2022-11-22T10:45:24.321Z,9.23
2022-11-22T10:46:24.399Z,9.14
2022-11-22T10:47:24.306Z,9.19
2022-11-22T10:48:24.299Z,9.21
2022-11-22T10:49:24.316Z,9.13
2022-11-22T10:50:24.279Z,9.04
2022-11-22T10:51:24.272Z,8.94
2022-11-22T10:52:24.271Z,8.76
2022-11-22T10:53:24.459Z,8.70
2022-11-22T10:54:24.277Z,8.79
2022-11-22T10:55:24.245Z,8.66
2022-11-22T10:56:24.233Z,8.79
2022-11-22T10:57:24.230Z,8.76
2022-11-22T10:58:24.220Z,9.00
2022-11-22T10:59:28.536Z,9.00
2022-11-22T11:00:25.223Z,9.04
2022-11-22T11:01:24.236Z,8.99
2022-11-22T11:02:25.280Z,8.85
2022-11-22T11:03:24.184Z,8.89
2022-11-22T11:04:24.167Z,8.81
2022-11-22T11:05:24.282Z,8.87
2022-11-22T11:06:33.458Z,8.89
2022-11-22T11:07:26.196Z,8.79
2022-11-22T11:08:47.503Z,8.82
2022-11-22T11:10:32.631Z,8.85
2022-11-22T11:11:26.114Z,8.84
2022-11-22T11:12:24.109Z,8.81
2022-11-22T11:13:24.132Z,9.03
2022-11-22T11:14:24.093Z,9.00
2022-11-22T11:15:24.114Z,9.02
2022-11-22T11:16:24.078Z,8.91
2022-11-22T11:17:24.083Z,9.08
2022-11-22T11:18:24.138Z,9.03
2022-11-22T11:19:24.056Z,8.92
2022-11-22T11:20:24.075Z,8.89
2022-11-22T11:21:24.039Z,8.99
2022-11-22T11:22:44.522Z,9.13
2022-11-22T11:23:26.035Z,9.23
2022-11-22T11:24:24.014Z,9.16
2022-11-22T11:25:24.031Z,9.29
2022-11-22T11:26:24.003Z,9.21
2022-11-22T11:27:23.992Z,9.28
2022-11-22T11:28:23.987Z,9.32
2022-11-22T11:29:23.979Z,9.39
2022-11-22T11:30:24.001Z,9.34
2022-11-22T11:31:23.960Z,9.31
2022-11-22T11:32:23.954Z,9.22
2022-11-22T11:33:23.952Z,9.32
2022-11-22T11:34:24.017Z,9.25
2022-11-22T11:35:23.952Z,9.40
2022-11-22T11:36:23.934Z,9.41
2022-11-22T11:37:23.925Z,9.41
2022-11-22T11:38:23.908Z,9.34
2022-11-22T11:39:23.903Z,9.25
2022-11-22T11:40:23.912Z,9.29
2022-11-22T11:41:23.890Z,9.28
2022-11-22T11:42:23.882Z,9.06
2022-11-22T11:43:23.869Z,9.18
2022-11-22T11:44:23.875Z,9.11
2022-11-22T11:45:23.877Z,9.02
2022-11-22T11:46:23.845Z,9.03
2022-11-22T11:47:23.840Z,9.02
2022-11-22T11:48:23.827Z,8.87
2022-11-22T11:49:23.820Z,8.82
2022-11-22T11:50:24.801Z,8.69
2022-11-22T11:51:24.808Z,8.66
2022-11-22T11:52:23.804Z,8.71
2022-11-22T11:53:23.789Z,8.55
2022-11-22T11:54:23.786Z,8.70
2022-11-22T11:55:23.799Z,8.69
2022-11-22T11:56:23.768Z,8.76
2022-11-22T11:57:23.760Z,8.67
2022-11-22T11:58:23.749Z,8.69
2022-11-22T11:59:23.749Z,8.79
2022-11-22T12:00:23.768Z,8.88
2022-11-22T12:01:23.734Z,8.81
2022-11-22T12:02:23.832Z,8.88
2022-11-22T12:03:23.710Z,8.87
2022-11-22T12:04:23.709Z,8.87
2022-11-22T12:05:23.721Z,8.73
2022-11-22T12:06:23.759Z,8.82
2022-11-22T12:07:23.735Z,8.76
2022-11-22T12:08:23.672Z,8.66
2022-11-22T12:09:23.668Z,8.71
2022-11-22T12:10:23.655Z,8.74
2022-11-22T12:11:23.679Z,8.69
2022-11-22T12:12:23.637Z,8.78
2022-11-22T12:13:23.635Z,8.69
2022-11-22T12:14:23.627Z,8.81
2022-11-22T12:15:23.615Z,8.66
2022-11-22T12:16:23.639Z,8.76
2022-11-22T12:17:23.619Z,8.76
2022-11-22T12:18:23.596Z,8.82
2022-11-22T12:19:25.121Z,8.82
2022-11-22T12:20:24.584Z,8.85
2022-11-22T12:21:23.595Z,8.87
2022-11-22T12:22:48.127Z,8.88
2022-11-22T12:23:25.555Z,8.94
2022-11-22T12:25:32.466Z,8.94
2022-11-22T12:26:25.564Z,8.81
2022-11-22T12:27:23.523Z,8.79
2022-11-22T12:28:23.519Z,8.84
2022-11-22T12:29:23.510Z,8.97
2022-11-22T12:30:23.502Z,8.85
2022-11-22T12:31:23.520Z,9.00
2022-11-22T12:32:23.490Z,8.97
2022-11-22T12:33:23.483Z,8.84
2022-11-22T12:34:23.479Z,8.84
2022-11-22T12:35:23.463Z,8.85
2022-11-22T12:36:26.016Z,8.82
2022-11-22T12:37:24.439Z,8.81
2022-11-22T12:38:24.576Z,8.70
2022-11-22T12:39:23.432Z,8.66
2022-11-22T12:40:23.424Z,8.60
2022-11-22T12:41:23.439Z,8.63
2022-11-22T12:42:23.600Z,8.53
2022-11-22T12:43:23.403Z,8.70
2022-11-22T12:44:23.392Z,8.63
2022-11-22T12:45:23.384Z,8.60
2022-11-22T12:46:26.692Z,8.58
2022-11-22T12:47:24.365Z,8.60
2022-11-22T12:48:24.451Z,8.64
2022-11-22T12:49:23.372Z,8.64
2022-11-22T12:50:23.343Z,8.71
2022-11-22T12:51:23.364Z,8.69
2022-11-22T12:52:23.333Z,8.87
2022-11-22T12:53:23.320Z,8.74
2022-11-22T12:54:23.315Z,8.78
2022-11-22T12:55:23.323Z,8.76
2022-11-22T12:56:26.151Z,8.78
2022-11-22T12:57:24.287Z,8.74
2022-11-22T12:58:23.286Z,8.69
2022-11-22T12:59:23.279Z,8.63
2022-11-22T13:00:23.264Z,8.60
2022-11-22T13:01:23.365Z,8.64
2022-11-22T13:02:23.247Z,8.55
2022-11-22T13:03:23.239Z,8.64
2022-11-22T13:04:23.241Z,8.76
2022-11-22T13:05:23.225Z,8.60
2022-11-22T13:06:23.235Z,8.79
2022-11-22T13:07:24.257Z,8.81
2022-11-22T13:08:23.199Z,8.81
2022-11-22T13:09:23.212Z,8.89
2022-11-22T13:10:23.263Z,8.81
2022-11-22T13:11:23.207Z,8.84
2022-11-22T13:12:23.177Z,8.88
2022-11-22T13:13:23.867Z,8.87
2022-11-22T13:14:23.157Z,8.76
2022-11-22T13:15:23.141Z,8.74
2022-11-22T13:16:23.163Z,8.69
2022-11-22T13:17:23.131Z,8.64
2022-11-22T13:18:23.126Z,8.70
2022-11-22T13:19:23.118Z,8.67
2022-11-22T13:20:23.114Z,8.71
2022-11-22T13:21:23.126Z,8.69
2022-11-22T13:22:23.090Z,8.78
2022-11-22T13:23:23.084Z,8.85